sensor_id;sensor_type;location;lat;lon;timestamp;temperature;humidity
12841;DHT22;6487;48.626;12.486;2022-12-29T00:00:01;3.10;99.90
12841;DHT22;6487;48.626;12.486;2022-12-29T00:02:29;3.10;99.90
12841;DHT22;6487;48.626;12.486;2022-12-29T00:04:58;3.10;99.90
12841;DHT22;6487;48.626;12.486;2022-12-29T00:07:26;3.10;99.90
12841;DHT22;6487;48.626;12.486;2022-12-29T00:09:54;3.00;99.90
12841;DHT22;6487;48.626;12.486;2022-12-29T00:12:22;3.00;99.90
12841;DHT22;6487;48.626;12.486;2022-12-29T00:14:51;3.00;99.90
12841;DHT22;6487;48.626;12.486;2022-12-29T00:17:38;3.00;99.90
12841;DHT22;6487;48.626;12.486;2022-12-29T00:20:07;3.00;99.90
12841;DHT22;6487;48.626;12.486;2022-12-29T00:23:04;3.00;99.90
12841;DHT22;6487;48.626;12.486;2022-12-29T00:25:50;3.00;99.90
12841;DHT22;6487;48.626;12.486;2022-12-29T00:28:35;2.90;99.90
12841;DHT22;6487;48.626;12.486;2022-12-29T00:31:21;2.80;99.90
12841;DHT22;6487;48.626;12.486;2022-12-29T00:34:10;2.90;99.90
12841;DHT22;6487;48.626;12.486;2022-12-29T00:36:57;2.90;99.90
12841;DHT22;6487;48.626;12.486;2022-12-29T00:39:25;2.90;99.90
12841;DHT22;6487;48.626;12.486;2022-12-29T00:42:10;2.90;99.90
12841;DHT22;6487;48.626;12.486;2022-12-29T00:45:01;2.90;99.90
12841;DHT22;6487;48.626;12.486;2022-12-29T00:47:30;2.90;99.90
12841;DHT22;6487;48.626;12.486;2022-12-29T00:49:59;2.90;99.90
12841;DHT22;6487;48.626;12.486;2022-12-29T00:52:27;2.80;99.90
12841;DHT22;6487;48.626;12.486;2022-12-29T00:54:55;2.80;99.90
12841;DHT22;6487;48.626;12.486;2022-12-29T00:57:23;2.80;99.90
12841;DHT22;6487;48.626;12.486;2022-12-29T00:59:51;2.80;99.90
12841;DHT22;6487;48.626;12.486;2022-12-29T01:02:20;2.70;99.90
12841;DHT22;6487;48.626;12.486;2022-12-29T01:04:48;2.60;99.90
12841;DHT22;6487;48.626;12.486;2022-12-29T01:07:18;2.60;99.90
12841;DHT22;6487;48.626;12.486;2022-12-29T01:09:46;2.60;99.90
12841;DHT22;6487;48.626;12.486;2022-12-29T01:12:33;2.70;99.90
12841;DHT22;6487;48.626;12.486;2022-12-29T01:15:13;2.70;99.90
12841;DHT22;6487;48.626;12.486;2022-12-29T01:17:42;2.60;99.90
12841;DHT22;6487;48.626;12.486;2022-12-29T01:20:11;2.70;99.90
12841;DHT22;6487;48.626;12.486;2022-12-29T01:22:41;2.70;99.90
12841;DHT22;6487;48.626;12.486;2022-12-29T01:25:10;2.70;99.90
12841;DHT22;6487;48.626;12.486;2022-12-29T01:27:39;2.60;99.90
12841;DHT22;6487;48.626;12.486;2022-12-29T01:30:09;2.40;99.90
12841;DHT22;6487;48.626;12.486;2022-12-29T01:32:37;2.30;99.90
12841;DHT22;6487;48.626;12.486;2022-12-29T01:35:06;2.50;99.90
12841;DHT22;6487;48.626;12.486;2022-12-29T01:37:34;2.50;99.90
12841;DHT22;6487;48.626;12.486;2022-12-29T01:40:05;2.60;99.90
12841;DHT22;6487;48.626;12.486;2022-12-29T01:42:34;2.40;99.90
12841;DHT22;6487;48.626;12.486;2022-12-29T01:45:03;2.30;99.90
12841;DHT22;6487;48.626;12.486;2022-12-29T01:47:39;2.20;99.90
12841;DHT22;6487;48.626;12.486;2022-12-29T01:50:11;2.30;99.90
12841;DHT22;6487;48.626;12.486;2022-12-29T01:52:50;2.30;99.90
12841;DHT22;6487;48.626;12.486;2022-12-29T01:55:23;2.30;99.90
12841;DHT22;6487;48.626;12.486;2022-12-29T01:57:52;2.10;99.90
12841;DHT22;6487;48.626;12.486;2022-12-29T02:00:21;2.20;99.90
12841;DHT22;6487;48.626;12.486;2022-12-29T02:02:51;2.20;99.90
12841;DHT22;6487;48.626;12.486;2022-12-29T02:05:25;2.30;99.90
12841;DHT22;6487;48.626;12.486;2022-12-29T02:07:55;2.20;99.90
12841;DHT22;6487;48.626;12.486;2022-12-29T02:10:28;2.20;99.90
12841;DHT22;6487;48.626;12.486;2022-12-29T02:12:59;2.20;99.90
12841;DHT22;6487;48.626;12.486;2022-12-29T02:15:34;2.10;99.90
12841;DHT22;6487;48.626;12.486;2022-12-29T02:18:25;2.20;99.90
12841;DHT22;6487;48.626;12.486;2022-12-29T02:31:13;2.00;99.90
12841;DHT22;6487;48.626;12.486;2022-12-29T02:33:56;2.00;99.90
12841;DHT22;6487;48.626;12.486;2022-12-29T02:36:36;2.10;99.90
12841;DHT22;6487;48.626;12.486;2022-12-29T02:39:15;2.10;99.90
12841;DHT22;6487;48.626;12.486;2022-12-29T02:41:58;2.00;99.90
12841;DHT22;6487;48.626;12.486;2022-12-29T02:44:36;2.00;99.90
12841;DHT22;6487;48.626;12.486;2022-12-29T02:47:20;1.90;99.90
12841;DHT22;6487;48.626;12.486;2022-12-29T02:49:56;2.00;99.90
12841;DHT22;6487;48.626;12.486;2022-12-29T02:52:30;2.10;99.90
12841;DHT22;6487;48.626;12.486;2022-12-29T02:54:59;2.10;99.90
12841;DHT22;6487;48.626;12.486;2022-12-29T02:57:32;2.10;99.90
12841;DHT22;6487;48.626;12.486;2022-12-29T03:00:04;2.10;99.90
12841;DHT22;6487;48.626;12.486;2022-12-29T03:02:58;2.00;99.90
12841;DHT22;6487;48.626;12.486;2022-12-29T03:05:46;2.00;99.90
12841;DHT22;6487;48.626;12.486;2022-12-29T03:08:28;2.00;99.90
12841;DHT22;6487;48.626;12.486;2022-12-29T03:11:02;2.00;99.90
12841;DHT22;6487;48.626;12.486;2022-12-29T03:13:39;1.90;99.90
12841;DHT22;6487;48.626;12.486;2022-12-29T03:16:31;1.90;99.90
12841;DHT22;6487;48.626;12.486;2022-12-29T03:19:07;1.90;99.90
12841;DHT22;6487;48.626;12.486;2022-12-29T03:21:43;1.90;99.90
12841;DHT22;6487;48.626;12.486;2022-12-29T03:24:33;1.80;99.90
12841;DHT22;6487;48.626;12.486;2022-12-29T03:27:06;1.80;99.90
12841;DHT22;6487;48.626;12.486;2022-12-29T03:29:40;1.80;99.90
12841;DHT22;6487;48.626;12.486;2022-12-29T03:32:14;1.80;99.90
12841;DHT22;6487;48.626;12.486;2022-12-29T03:34:45;1.80;99.90
12841;DHT22;6487;48.626;12.486;2022-12-29T03:37:16;1.80;99.90
12841;DHT22;6487;48.626;12.486;2022-12-29T03:39:46;1.80;99.90
12841;DHT22;6487;48.626;12.486;2022-12-29T03:42:19;1.90;99.90
12841;DHT22;6487;48.626;12.486;2022-12-29T03:44:53;1.80;99.90
12841;DHT22;6487;48.626;12.486;2022-12-29T03:47:23;1.90;99.90
12841;DHT22;6487;48.626;12.486;2022-12-29T03:49:53;1.90;99.90
12841;DHT22;6487;48.626;12.486;2022-12-29T03:52:22;1.90;99.90
12841;DHT22;6487;48.626;12.486;2022-12-29T03:54:50;2.00;99.90
12841;DHT22;6487;48.626;12.486;2022-12-29T03:57:18;2.00;99.90
12841;DHT22;6487;48.626;12.486;2022-12-29T03:59:46;1.90;99.90
12841;DHT22;6487;48.626;12.486;2022-12-29T04:02:15;2.00;99.90
12841;DHT22;6487;48.626;12.486;2022-12-29T04:04:44;1.90;99.90
12841;DHT22;6487;48.626;12.486;2022-12-29T04:07:13;2.00;99.90
12841;DHT22;6487;48.626;12.486;2022-12-29T04:09:43;2.10;99.90
12841;DHT22;6487;48.626;12.486;2022-12-29T04:12:12;2.10;99.90
12841;DHT22;6487;48.626;12.486;2022-12-29T04:14:41;2.00;99.90
12841;DHT22;6487;48.626;12.486;2022-12-29T04:17:09;2.00;99.90
12841;DHT22;6487;48.626;12.486;2022-12-29T04:19:37;2.00;99.90
12841;DHT22;6487;48.626;12.486;2022-12-29T04:22:05;2.10;99.90
12841;DHT22;6487;48.626;12.486;2022-12-29T04:24:35;2.10;99.90
12841;DHT22;6487;48.626;12.486;2022-12-29T04:27:04;2.10;99.90
12841;DHT22;6487;48.626;12.486;2022-12-29T04:29:32;2.20;99.90
12841;DHT22;6487;48.626;12.486;2022-12-29T04:32:00;2.10;99.90
12841;DHT22;6487;48.626;12.486;2022-12-29T04:34:28;2.10;99.90
12841;DHT22;6487;48.626;12.486;2022-12-29T04:36:57;2.20;99.90
12841;DHT22;6487;48.626;12.486;2022-12-29T04:39:25;2.30;99.90
12841;DHT22;6487;48.626;12.486;2022-12-29T04:41:54;2.20;99.90
12841;DHT22;6487;48.626;12.486;2022-12-29T04:44:23;2.30;99.90
12841;DHT22;6487;48.626;12.486;2022-12-29T04:46:51;2.20;99.90
12841;DHT22;6487;48.626;12.486;2022-12-29T04:49:19;2.20;99.90
12841;DHT22;6487;48.626;12.486;2022-12-29T04:51:48;2.30;99.90
12841;DHT22;6487;48.626;12.486;2022-12-29T04:54:16;2.30;99.90
12841;DHT22;6487;48.626;12.486;2022-12-29T04:56:44;2.20;99.90
12841;DHT22;6487;48.626;12.486;2022-12-29T04:59:14;2.40;99.90
12841;DHT22;6487;48.626;12.486;2022-12-29T05:01:43;2.30;99.90
12841;DHT22;6487;48.626;12.486;2022-12-29T05:04:11;2.30;99.90
12841;DHT22;6487;48.626;12.486;2022-12-29T05:06:40;2.40;99.90
12841;DHT22;6487;48.626;12.486;2022-12-29T05:09:08;2.40;99.90
12841;DHT22;6487;48.626;12.486;2022-12-29T05:11:36;2.40;99.90
12841;DHT22;6487;48.626;12.486;2022-12-29T05:14:05;2.50;99.90
12841;DHT22;6487;48.626;12.486;2022-12-29T05:16:34;2.60;99.90
12841;DHT22;6487;48.626;12.486;2022-12-29T05:19:03;2.30;99.90
12841;DHT22;6487;48.626;12.486;2022-12-29T05:21:31;2.20;99.90
12841;DHT22;6487;48.626;12.486;2022-12-29T05:23:59;2.30;99.90
12841;DHT22;6487;48.626;12.486;2022-12-29T05:26:27;2.30;99.90
12841;DHT22;6487;48.626;12.486;2022-12-29T05:28:56;2.40;99.90
12841;DHT22;6487;48.626;12.486;2022-12-29T05:31:24;2.40;99.90
12841;DHT22;6487;48.626;12.486;2022-12-29T05:33:54;2.40;99.90
12841;DHT22;6487;48.626;12.486;2022-12-29T05:36:22;2.30;99.90
12841;DHT22;6487;48.626;12.486;2022-12-29T05:38:50;2.50;99.90
12841;DHT22;6487;48.626;12.486;2022-12-29T05:41:19;2.50;99.90
12841;DHT22;6487;48.626;12.486;2022-12-29T05:43:47;2.60;99.90
12841;DHT22;6487;48.626;12.486;2022-12-29T05:46:15;2.50;99.90
12841;DHT22;6487;48.626;12.486;2022-12-29T05:48:44;2.60;99.90
12841;DHT22;6487;48.626;12.486;2022-12-29T05:51:13;2.50;99.90
12841;DHT22;6487;48.626;12.486;2022-12-29T05:53:44;2.60;99.90
12841;DHT22;6487;48.626;12.486;2022-12-29T05:56:12;2.60;99.90
12841;DHT22;6487;48.626;12.486;2022-12-29T05:58:40;2.60;99.90
12841;DHT22;6487;48.626;12.486;2022-12-29T06:01:08;2.70;99.90
12841;DHT22;6487;48.626;12.486;2022-12-29T06:03:37;2.80;99.90
12841;DHT22;6487;48.626;12.486;2022-12-29T06:06:15;2.70;99.90
12841;DHT22;6487;48.626;12.486;2022-12-29T06:08:43;2.80;99.90
12841;DHT22;6487;48.626;12.486;2022-12-29T06:11:11;2.80;99.90
12841;DHT22;6487;48.626;12.486;2022-12-29T06:13:40;2.90;99.90
12841;DHT22;6487;48.626;12.486;2022-12-29T06:16:09;2.90;99.90
12841;DHT22;6487;48.626;12.486;2022-12-29T06:18:37;2.80;99.90
12841;DHT22;6487;48.626;12.486;2022-12-29T06:21:05;2.90;99.90
12841;DHT22;6487;48.626;12.486;2022-12-29T06:23:36;2.90;99.90
12841;DHT22;6487;48.626;12.486;2022-12-29T06:26:04;2.90;99.90
12841;DHT22;6487;48.626;12.486;2022-12-29T06:28:32;2.90;99.90
12841;DHT22;6487;48.626;12.486;2022-12-29T06:31:01;3.00;99.90
12841;DHT22;6487;48.626;12.486;2022-12-29T06:33:29;3.00;99.90
12841;DHT22;6487;48.626;12.486;2022-12-29T06:35:58;3.00;99.90
12841;DHT22;6487;48.626;12.486;2022-12-29T06:38:26;3.00;99.90
12841;DHT22;6487;48.626;12.486;2022-12-29T06:40:56;3.00;99.90
12841;DHT22;6487;48.626;12.486;2022-12-29T06:43:24;3.00;99.90
12841;DHT22;6487;48.626;12.486;2022-12-29T06:45:52;3.00;99.90
12841;DHT22;6487;48.626;12.486;2022-12-29T06:48:21;2.90;99.90
12841;DHT22;6487;48.626;12.486;2022-12-29T06:50:50;3.00;99.90
12841;DHT22;6487;48.626;12.486;2022-12-29T06:53:18;3.00;99.90
12841;DHT22;6487;48.626;12.486;2022-12-29T06:55:46;3.00;99.90
12841;DHT22;6487;48.626;12.486;2022-12-29T06:58:16;3.10;99.90
12841;DHT22;6487;48.626;12.486;2022-12-29T07:00:44;3.20;99.90
12841;DHT22;6487;48.626;12.486;2022-12-29T07:03:12;3.10;99.90
12841;DHT22;6487;48.626;12.486;2022-12-29T07:05:41;3.10;99.90
12841;DHT22;6487;48.626;12.486;2022-12-29T07:08:09;3.20;99.90
12841;DHT22;6487;48.626;12.486;2022-12-29T07:10:38;3.30;99.90
12841;DHT22;6487;48.626;12.486;2022-12-29T07:13:06;3.30;99.90
12841;DHT22;6487;48.626;12.486;2022-12-29T07:15:36;3.20;99.90
12841;DHT22;6487;48.626;12.486;2022-12-29T07:18:05;3.30;99.90
12841;DHT22;6487;48.626;12.486;2022-12-29T07:20:33;3.40;99.90
12841;DHT22;6487;48.626;12.486;2022-12-29T07:23:02;3.30;99.90
12841;DHT22;6487;48.626;12.486;2022-12-29T07:25:30;3.30;99.90
12841;DHT22;6487;48.626;12.486;2022-12-29T07:27:59;3.50;99.90
12841;DHT22;6487;48.626;12.486;2022-12-29T07:30:27;3.40;99.90
12841;DHT22;6487;48.626;12.486;2022-12-29T07:32:57;3.40;99.90
12841;DHT22;6487;48.626;12.486;2022-12-29T07:35:25;3.50;99.90
12841;DHT22;6487;48.626;12.486;2022-12-29T07:37:53;3.50;99.90
12841;DHT22;6487;48.626;12.486;2022-12-29T07:40:21;3.50;99.90
12841;DHT22;6487;48.626;12.486;2022-12-29T07:42:50;3.50;99.90
12841;DHT22;6487;48.626;12.486;2022-12-29T07:45:18;3.50;99.90
12841;DHT22;6487;48.626;12.486;2022-12-29T07:47:47;3.60;99.90
12841;DHT22;6487;48.626;12.486;2022-12-29T07:50:18;3.60;99.90
12841;DHT22;6487;48.626;12.486;2022-12-29T07:52:46;3.60;99.90
12841;DHT22;6487;48.626;12.486;2022-12-29T07:55:14;3.70;99.90
12841;DHT22;6487;48.626;12.486;2022-12-29T07:57:43;3.70;99.90
12841;DHT22;6487;48.626;12.486;2022-12-29T08:00:12;3.70;99.90
12841;DHT22;6487;48.626;12.486;2022-12-29T08:02:41;3.70;99.90
12841;DHT22;6487;48.626;12.486;2022-12-29T08:05:10;3.70;99.90
12841;DHT22;6487;48.626;12.486;2022-12-29T08:07:39;3.80;99.90
12841;DHT22;6487;48.626;12.486;2022-12-29T08:10:08;3.80;99.90
12841;DHT22;6487;48.626;12.486;2022-12-29T08:12:38;3.90;99.90
12841;DHT22;6487;48.626;12.486;2022-12-29T08:15:08;3.90;99.90
12841;DHT22;6487;48.626;12.486;2022-12-29T08:17:37;3.90;99.90
12841;DHT22;6487;48.626;12.486;2022-12-29T08:20:07;4.00;99.90
12841;DHT22;6487;48.626;12.486;2022-12-29T08:22:36;4.00;99.90
12841;DHT22;6487;48.626;12.486;2022-12-29T08:25:06;4.00;99.90
12841;DHT22;6487;48.626;12.486;2022-12-29T08:27:35;4.10;99.90
12841;DHT22;6487;48.626;12.486;2022-12-29T08:30:05;4.00;99.90
12841;DHT22;6487;48.626;12.486;2022-12-29T08:32:34;4.10;99.90
12841;DHT22;6487;48.626;12.486;2022-12-29T08:35:02;4.10;99.90
12841;DHT22;6487;48.626;12.486;2022-12-29T08:37:32;4.20;99.90
12841;DHT22;6487;48.626;12.486;2022-12-29T08:40:00;4.20;99.90
12841;DHT22;6487;48.626;12.486;2022-12-29T08:42:32;4.20;99.90
12841;DHT22;6487;48.626;12.486;2022-12-29T08:45:01;4.30;99.90
12841;DHT22;6487;48.626;12.486;2022-12-29T08:47:29;4.30;99.90
12841;DHT22;6487;48.626;12.486;2022-12-29T08:49:57;4.30;99.90
12841;DHT22;6487;48.626;12.486;2022-12-29T08:52:26;4.40;99.90
12841;DHT22;6487;48.626;12.486;2022-12-29T08:54:54;4.30;99.90
12841;DHT22;6487;48.626;12.486;2022-12-29T08:57:22;4.30;99.90
12841;DHT22;6487;48.626;12.486;2022-12-29T08:59:52;4.30;99.90
12841;DHT22;6487;48.626;12.486;2022-12-29T09:02:21;4.30;99.90
12841;DHT22;6487;48.626;12.486;2022-12-29T09:04:50;4.30;99.90
12841;DHT22;6487;48.626;12.486;2022-12-29T09:07:19;4.40;99.90
12841;DHT22;6487;48.626;12.486;2022-12-29T09:09:47;4.40;99.90
12841;DHT22;6487;48.626;12.486;2022-12-29T09:12:16;4.40;99.90
12841;DHT22;6487;48.626;12.486;2022-12-29T09:14:46;4.50;99.90
12841;DHT22;6487;48.626;12.486;2022-12-29T09:17:15;4.60;99.90
12841;DHT22;6487;48.626;12.486;2022-12-29T09:20:01;4.70;99.90
12841;DHT22;6487;48.626;12.486;2022-12-29T09:22:30;5.00;99.90
12841;DHT22;6487;48.626;12.486;2022-12-29T09:24:58;5.10;99.90
12841;DHT22;6487;48.626;12.486;2022-12-29T09:27:26;5.20;99.90
12841;DHT22;6487;48.626;12.486;2022-12-29T09:29:54;5.30;99.90
12841;DHT22;6487;48.626;12.486;2022-12-29T09:32:24;5.40;99.90
12841;DHT22;6487;48.626;12.486;2022-12-29T09:34:59;5.50;99.90
12841;DHT22;6487;48.626;12.486;2022-12-29T09:37:27;5.60;99.90
12841;DHT22;6487;48.626;12.486;2022-12-29T09:39:55;5.70;99.90
12841;DHT22;6487;48.626;12.486;2022-12-29T09:42:27;5.90;99.90
12841;DHT22;6487;48.626;12.486;2022-12-29T09:45:07;6.10;99.90
12841;DHT22;6487;48.626;12.486;2022-12-29T09:47:41;6.40;99.90
12841;DHT22;6487;48.626;12.486;2022-12-29T09:50:20;6.70;99.90
12841;DHT22;6487;48.626;12.486;2022-12-29T09:52:54;7.10;99.90
12841;DHT22;6487;48.626;12.486;2022-12-29T09:55:32;7.40;99.90
12841;DHT22;6487;48.626;12.486;2022-12-29T09:58:05;7.70;99.90
12841;DHT22;6487;48.626;12.486;2022-12-29T10:00:41;7.90;99.90
12841;DHT22;6487;48.626;12.486;2022-12-29T10:03:24;8.10;99.90
12841;DHT22;6487;48.626;12.486;2022-12-29T10:06:03;8.20;99.90
12841;DHT22;6487;48.626;12.486;2022-12-29T10:08:39;8.50;99.90
12841;DHT22;6487;48.626;12.486;2022-12-29T10:11:21;8.90;99.90
12841;DHT22;6487;48.626;12.486;2022-12-29T10:14:10;9.10;99.90
12841;DHT22;6487;48.626;12.486;2022-12-29T10:16:53;9.40;99.00
12841;DHT22;6487;48.626;12.486;2022-12-29T10:19:43;9.70;98.60
12841;DHT22;6487;48.626;12.486;2022-12-29T10:22:37;10.00;99.00
12841;DHT22;6487;48.626;12.486;2022-12-29T10:25:13;10.50;99.90
12841;DHT22;6487;48.626;12.486;2022-12-29T10:27:47;10.60;97.10
12841;DHT22;6487;48.626;12.486;2022-12-29T10:30:17;10.80;96.30
12841;DHT22;6487;48.626;12.486;2022-12-29T10:32:48;10.90;96.10
12841;DHT22;6487;48.626;12.486;2022-12-29T10:35:22;11.00;95.60
12841;DHT22;6487;48.626;12.486;2022-12-29T10:37:58;11.10;96.30
12841;DHT22;6487;48.626;12.486;2022-12-29T10:40:36;11.30;97.00
12841;DHT22;6487;48.626;12.486;2022-12-29T10:43:17;11.40;96.30
12841;DHT22;6487;48.626;12.486;2022-12-29T10:45:51;11.50;95.70
12841;DHT22;6487;48.626;12.486;2022-12-29T10:48:22;11.60;95.70
12841;DHT22;6487;48.626;12.486;2022-12-29T10:51:01;11.70;98.80
12841;DHT22;6487;48.626;12.486;2022-12-29T10:53:37;11.80;98.30
12841;DHT22;6487;48.626;12.486;2022-12-29T10:56:15;11.80;99.20
12841;DHT22;6487;48.626;12.486;2022-12-29T10:58:58;12.00;99.50
12841;DHT22;6487;48.626;12.486;2022-12-29T11:01:34;12.00;99.50
12841;DHT22;6487;48.626;12.486;2022-12-29T11:04:20;12.00;98.00
12841;DHT22;6487;48.626;12.486;2022-12-29T11:06:56;12.00;97.70
12841;DHT22;6487;48.626;12.486;2022-12-29T11:09:28;12.00;95.00
12841;DHT22;6487;48.626;12.486;2022-12-29T11:12:21;12.10;96.20
12841;DHT22;6487;48.626;12.486;2022-12-29T11:15:13;12.20;96.60
12841;DHT22;6487;48.626;12.486;2022-12-29T11:17:47;12.10;94.50
12841;DHT22;6487;48.626;12.486;2022-12-29T11:20:32;12.10;94.30
12841;DHT22;6487;48.626;12.486;2022-12-29T11:23:04;12.10;95.80
12841;DHT22;6487;48.626;12.486;2022-12-29T11:26:06;12.10;97.40
12841;DHT22;6487;48.626;12.486;2022-12-29T11:28:47;12.20;97.10
12841;DHT22;6487;48.626;12.486;2022-12-29T11:31:17;12.20;97.60
12841;DHT22;6487;48.626;12.486;2022-12-29T11:33:47;12.20;98.40
12841;DHT22;6487;48.626;12.486;2022-12-29T11:36:19;12.30;97.50
12841;DHT22;6487;48.626;12.486;2022-12-29T11:38:52;12.40;96.90
12841;DHT22;6487;48.626;12.486;2022-12-29T11:41:23;12.50;98.30
12841;DHT22;6487;48.626;12.486;2022-12-29T11:43:54;12.40;96.30
12841;DHT22;6487;48.626;12.486;2022-12-29T11:46:26;12.40;95.90
12841;DHT22;6487;48.626;12.486;2022-12-29T11:48:56;12.40;95.70
12841;DHT22;6487;48.626;12.486;2022-12-29T11:51:30;12.50;95.60
12841;DHT22;6487;48.626;12.486;2022-12-29T11:54:05;12.50;94.70
12841;DHT22;6487;48.626;12.486;2022-12-29T11:56:36;12.30;92.80
12841;DHT22;6487;48.626;12.486;2022-12-29T11:59:37;12.30;95.20
12841;DHT22;6487;48.626;12.486;2022-12-29T12:02:24;12.40;92.70
12841;DHT22;6487;48.626;12.486;2022-12-29T12:05:24;12.40;92.20
12841;DHT22;6487;48.626;12.486;2022-12-29T12:08:03;12.20;93.80
12841;DHT22;6487;48.626;12.486;2022-12-29T12:10:42;12.20;94.20
12841;DHT22;6487;48.626;12.486;2022-12-29T12:13:19;12.10;94.90
12841;DHT22;6487;48.626;12.486;2022-12-29T12:15:56;12.10;94.90
12841;DHT22;6487;48.626;12.486;2022-12-29T12:18:34;11.90;92.00
12841;DHT22;6487;48.626;12.486;2022-12-29T12:21:13;11.90;91.60
12841;DHT22;6487;48.626;12.486;2022-12-29T12:24:15;11.80;91.30
12841;DHT22;6487;48.626;12.486;2022-12-29T12:26:58;11.80;92.60
12841;DHT22;6487;48.626;12.486;2022-12-29T12:29:35;11.70;95.00
12841;DHT22;6487;48.626;12.486;2022-12-29T12:32:13;11.70;96.30
12841;DHT22;6487;48.626;12.486;2022-12-29T12:34:45;11.60;94.80
12841;DHT22;6487;48.626;12.486;2022-12-29T12:40:34;11.60;92.90
12841;DHT22;6487;48.626;12.486;2022-12-29T12:43:35;11.60;92.70
12841;DHT22;6487;48.626;12.486;2022-12-29T12:46:19;11.70;93.50
12841;DHT22;6487;48.626;12.486;2022-12-29T12:49:15;11.70;92.50
12841;DHT22;6487;48.626;12.486;2022-12-29T12:52:07;11.60;92.30
12841;DHT22;6487;48.626;12.486;2022-12-29T12:54:52;11.70;94.10
12841;DHT22;6487;48.626;12.486;2022-12-29T12:57:43;11.70;95.20
12841;DHT22;6487;48.626;12.486;2022-12-29T13:00:19;11.60;96.00
12841;DHT22;6487;48.626;12.486;2022-12-29T13:03:00;11.60;96.70
12841;DHT22;6487;48.626;12.486;2022-12-29T13:05:57;11.60;95.70
12841;DHT22;6487;48.626;12.486;2022-12-29T13:08:54;11.40;97.00
12841;DHT22;6487;48.626;12.486;2022-12-29T13:11:42;11.40;95.50
12841;DHT22;6487;48.626;12.486;2022-12-29T13:14:29;11.30;97.00
12841;DHT22;6487;48.626;12.486;2022-12-29T13:17:13;11.40;97.20
12841;DHT22;6487;48.626;12.486;2022-12-29T13:19:50;11.30;96.90
12841;DHT22;6487;48.626;12.486;2022-12-29T13:22:25;11.30;96.40
12841;DHT22;6487;48.626;12.486;2022-12-29T13:25:15;11.30;96.80
12841;DHT22;6487;48.626;12.486;2022-12-29T13:27:54;11.30;96.40
12841;DHT22;6487;48.626;12.486;2022-12-29T13:30:31;11.30;96.70
12841;DHT22;6487;48.626;12.486;2022-12-29T13:33:07;11.30;97.20
12841;DHT22;6487;48.626;12.486;2022-12-29T13:35:59;11.30;97.20
12841;DHT22;6487;48.626;12.486;2022-12-29T13:38:34;11.10;97.50
12841;DHT22;6487;48.626;12.486;2022-12-29T13:41:06;11.10;97.60
12841;DHT22;6487;48.626;12.486;2022-12-29T13:43:39;11.10;97.10
12841;DHT22;6487;48.626;12.486;2022-12-29T13:46:13;11.10;97.70
12841;DHT22;6487;48.626;12.486;2022-12-29T13:48:49;11.10;97.50
12841;DHT22;6487;48.626;12.486;2022-12-29T13:51:23;10.90;98.30
12841;DHT22;6487;48.626;12.486;2022-12-29T13:54:07;11.00;97.80
12841;DHT22;6487;48.626;12.486;2022-12-29T13:56:45;11.00;97.00
12841;DHT22;6487;48.626;12.486;2022-12-29T13:59:22;11.00;97.80
12841;DHT22;6487;48.626;12.486;2022-12-29T14:01:56;11.10;97.50
12841;DHT22;6487;48.626;12.486;2022-12-29T14:04:30;11.10;97.50
12841;DHT22;6487;48.626;12.486;2022-12-29T14:07:02;11.00;98.10
12841;DHT22;6487;48.626;12.486;2022-12-29T14:09:44;11.10;97.50
12841;DHT22;6487;48.626;12.486;2022-12-29T14:12:32;11.10;98.20
12841;DHT22;6487;48.626;12.486;2022-12-29T14:15:05;11.10;97.30
12841;DHT22;6487;48.626;12.486;2022-12-29T14:17:43;11.10;97.50
12841;DHT22;6487;48.626;12.486;2022-12-29T14:20:21;11.20;96.60
12841;DHT22;6487;48.626;12.486;2022-12-29T14:22:57;11.20;95.90
12841;DHT22;6487;48.626;12.486;2022-12-29T14:25:53;11.10;96.90
12841;DHT22;6487;48.626;12.486;2022-12-29T14:28:25;11.10;97.20
12841;DHT22;6487;48.626;12.486;2022-12-29T14:30:55;11.10;97.00
12841;DHT22;6487;48.626;12.486;2022-12-29T14:33:27;11.10;97.60
12841;DHT22;6487;48.626;12.486;2022-12-29T14:36:19;11.10;97.70
12841;DHT22;6487;48.626;12.486;2022-12-29T14:38:48;11.00;97.30
12841;DHT22;6487;48.626;12.486;2022-12-29T14:41:29;10.90;96.00
12841;DHT22;6487;48.626;12.486;2022-12-29T14:44:14;10.90;95.90
12841;DHT22;6487;48.626;12.486;2022-12-29T14:46:49;10.80;95.80
12841;DHT22;6487;48.626;12.486;2022-12-29T14:49:25;10.80;96.30
12841;DHT22;6487;48.626;12.486;2022-12-29T14:52:07;10.70;96.20
12841;DHT22;6487;48.626;12.486;2022-12-29T14:54:53;10.70;96.70
12841;DHT22;6487;48.626;12.486;2022-12-29T14:57:27;10.70;96.70
12841;DHT22;6487;48.626;12.486;2022-12-29T15:00:05;10.60;96.60
12841;DHT22;6487;48.626;12.486;2022-12-29T15:02:39;10.60;97.30
12841;DHT22;6487;48.626;12.486;2022-12-29T15:05:27;10.60;97.50
12841;DHT22;6487;48.626;12.486;2022-12-29T15:08:00;10.60;97.70
12841;DHT22;6487;48.626;12.486;2022-12-29T15:10:38;10.50;97.20
12841;DHT22;6487;48.626;12.486;2022-12-29T15:13:16;10.50;96.60
12841;DHT22;6487;48.626;12.486;2022-12-29T15:15:46;10.40;96.90
12841;DHT22;6487;48.626;12.486;2022-12-29T15:18:22;10.40;97.00
12841;DHT22;6487;48.626;12.486;2022-12-29T15:20:54;10.30;97.50
12841;DHT22;6487;48.626;12.486;2022-12-29T15:23:25;10.30;97.40
12841;DHT22;6487;48.626;12.486;2022-12-29T15:25:56;10.20;97.60
12841;DHT22;6487;48.626;12.486;2022-12-29T15:28:26;10.20;98.00
12841;DHT22;6487;48.626;12.486;2022-12-29T15:31:01;10.10;98.40
12841;DHT22;6487;48.626;12.486;2022-12-29T15:33:38;10.00;98.60
12841;DHT22;6487;48.626;12.486;2022-12-29T15:36:11;9.90;99.00
12841;DHT22;6487;48.626;12.486;2022-12-29T15:38:42;9.80;98.90
12841;DHT22;6487;48.626;12.486;2022-12-29T15:41:23;9.70;99.10
12841;DHT22;6487;48.626;12.486;2022-12-29T15:44:04;9.70;99.30
12841;DHT22;6487;48.626;12.486;2022-12-29T15:46:38;9.80;99.70
12841;DHT22;6487;48.626;12.486;2022-12-29T15:49:08;9.80;99.80
12841;DHT22;6487;48.626;12.486;2022-12-29T15:51:38;9.80;99.70
12841;DHT22;6487;48.626;12.486;2022-12-29T15:54:15;9.80;99.90
12841;DHT22;6487;48.626;12.486;2022-12-29T15:56:45;9.80;99.90
12841;DHT22;6487;48.626;12.486;2022-12-29T15:59:23;9.80;99.90
12841;DHT22;6487;48.626;12.486;2022-12-29T16:01:54;9.80;99.90
12841;DHT22;6487;48.626;12.486;2022-12-29T16:04:24;9.70;99.90
12841;DHT22;6487;48.626;12.486;2022-12-29T16:06:56;9.70;99.90
12841;DHT22;6487;48.626;12.486;2022-12-29T16:09:32;9.80;99.90
12841;DHT22;6487;48.626;12.486;2022-12-29T16:12:04;9.80;99.90
12841;DHT22;6487;48.626;12.486;2022-12-29T16:14:40;9.80;99.90
12841;DHT22;6487;48.626;12.486;2022-12-29T16:17:13;9.80;99.90
12841;DHT22;6487;48.626;12.486;2022-12-29T16:19:49;9.80;99.90
12841;DHT22;6487;48.626;12.486;2022-12-29T16:22:24;9.80;99.90
12841;DHT22;6487;48.626;12.486;2022-12-29T16:24:58;9.80;99.90
12841;DHT22;6487;48.626;12.486;2022-12-29T16:27:34;9.80;99.90
12841;DHT22;6487;48.626;12.486;2022-12-29T16:30:06;9.70;99.90
12841;DHT22;6487;48.626;12.486;2022-12-29T16:32:46;9.70;99.90
12841;DHT22;6487;48.626;12.486;2022-12-29T16:35:18;9.60;99.90
12841;DHT22;6487;48.626;12.486;2022-12-29T16:37:48;9.60;99.90